Haiyang, China
Current Conditions -  °F | °C
As of 5:00 PM on Saturday 25 Oct 2014 (Local Time) from ZSQD Reporting Station
Clear Clear  
Wind Chill: 68°   Ceiling: Unl
Heat Index: 68°   Visibility: 4mi
Dew Point: 59°   Wind: 11mph
Humidity: 73%   Direction: 160°SSE
Pressure: 29.97"   Gusts: NA
Location:  36.77°N, 121.17°E
Report Text: ZSQD 250900Z 16005MPS 7000 NSC 20/15 Q1015 NOSIG
Loading
Personal Weather Stations






























Interactive Weather Map
Tropical Storm Tracking
New forecast layout! Learn more

10-Day Weather Forecast

Advertisements
Track Severe Weather on mobile